Main page
METAR-TAF:

METAR-TAF

Airports :

Derry, Northern Ireland

City of Derry Airport

latitude: 55-03N, longitude: 007-09W, elevation: 9 m

Current weather observation

The report was made 26 minutes ago, at 06:50 UTC
Wind 13 kt from the West/Southwest
Temperature 13°C
Humidity 82%
Pressure 1010 hPa
Visibility 10 km or more
Few clouds at a height of 1600 ft
Scattered clouds at a height of 4500 ft

METAR: EGAE 190650Z 24013KT 9999 FEW016 SCT045 13/10 Q1010

Time: 08:16 (07:16 UTC)

Forecast

The report was made 36 minutes ago, at 06:40 UTC
Forecast valid from 19 at 06 UTC to 19 at 15 UTC
Wind 15 kt from the West
Visibility 10 km or more
Few clouds at a height of 1800 ft
Scattered clouds at a height of 3000 ft
Probability 40% :
Temporary
from 19 at 06 UTC to 19 at 15 UTC
Wind 20 kt from the West with gusts up to 30 kt
Visibility: 7000 m
rain showers

TAF: EGAE 190640Z 1906/1915 26015KT 9999 FEW018 SCT030 PROB40 TEMPO 1906/1915 28020G30KT 7000 SHRA

Weather observations and forecasts of more than 4000 airports (METAR and TAF reports).

The available stations are represented by yellow and red dots on the map.

Hover mouse over dot to see the name of the station.

Then click to see weather observations and forecasts.

To change the map : click on the green buttons with a black cross to zoom in, on the green button with a dash to zoom out, or on the green arrows for adjacent maps.


METAR-TAF: